Time;durP1;ratioP1;P1;durP2;ratioP2;P2;SDS_P1;SDS_P2;PMS_P1;PMS_P2;Temp;Humidity;BMP_temperature;BMP_pressure;BME280_temperature;BME280_humidity;BME280_pressure;Samples;Min_cycle;Max_cycle;Signal;HPM_P1;HPM_P2
2021/09/18 00:01:22;;;;;;;7.50;4.90;;;;;;;10.48;100.00;96216.34;5076303;28;20543;-77
2021/09/18 00:03:48;;;;;;;7.17;4.80;;;;;;;10.46;100.00;96221.78;5074574;28;20024;-76
2021/09/18 00:06:13;;;;;;;9.03;5.23;;;;;;;10.39;100.00;96215.47;5070046;28;20047;-76
2021/09/18 00:08:39;;;;;;;8.73;4.77;;;;;;;10.40;100.00;96213.72;5081025;28;20388;-77
2021/09/18 00:11:05;;;;;;;9.30;4.83;;;;;;;10.15;100.00;96219.63;5062562;28;20429;-77
2021/09/18 00:13:32;;;;;;;10.33;4.73;;;;;;;10.18;100.00;96215.03;5074794;28;20024;-76
2021/09/18 00:15:59;;;;;;;7.13;4.97;;;;;;;10.20;100.00;96210.47;5078444;28;20055;-77
2021/09/18 00:18:24;;;;;;;10.03;5.17;;;;;;;10.20;100.00;96218.34;5057528;28;20145;-76
2021/09/18 00:20:50;;;;;;;11.13;5.73;;;;;;;10.03;100.00;96213.00;5086039;28;20173;-76
2021/09/18 00:23:16;;;;;;;10.63;6.00;;;;;;;10.02;100.00;96213.97;5070342;28;20020;-76
2021/09/18 00:25:42;;;;;;;8.53;5.73;;;;;;;9.82;100.00;96215.16;5083503;28;20040;-76
2021/09/18 00:28:08;;;;;;;8.73;5.73;;;;;;;9.79;100.00;96215.47;5071489;28;20097;-77
2021/09/18 00:30:34;;;;;;;8.87;5.90;;;;;;;9.82;100.00;96212.53;5084865;28;20058;-76
2021/09/18 00:33:02;;;;;;;8.97;6.10;;;;;;;9.86;100.00;96208.66;5083750;28;20396;-77
2021/09/18 00:35:27;;;;;;;7.53;5.23;;;;;;;9.90;100.00;96218.69;5078531;28;20028;-77
2021/09/18 00:37:53;;;;;;;8.20;5.57;;;;;;;9.88;100.00;96211.91;5078632;28;20016;-76
2021/09/18 00:40:19;;;;;;;8.40;5.20;;;;;;;9.98;100.00;96217.06;5072138;28;20085;-76
2021/09/18 00:42:44;;;;;;;8.70;5.87;;;;;;;9.96;100.00;96213.75;5061968;28;20027;-76
2021/09/18 00:45:10;;;;;;;6.77;4.97;;;;;;;9.94;100.00;96211.31;5085095;28;20032;-76
2021/09/18 00:47:36;;;;;;;10.37;5.53;;;;;;;9.91;100.00;96204.56;5085837;28;20632;-75
2021/09/18 00:50:04;;;;;;;9.43;5.53;;;;;;;9.85;100.00;96212.22;5081816;28;20066;-76
2021/09/18 00:52:29;;;;;;;8.27;5.70;;;;;;;9.88;100.00;96209.31;5084172;28;20370;-77
2021/09/18 00:54:55;;;;;;;8.73;4.90;;;;;;;9.91;100.00;96209.81;5079263;28;20173;-77
2021/09/18 00:57:21;;;;;;;10.00;5.37;;;;;;;9.96;100.00;96200.63;5084216;28;20111;-76
2021/09/18 00:59:47;;;;;;;7.70;5.30;;;;;;;9.87;100.00;96213.72;5077503;28;20037;-77
2021/09/18 01:02:13;;;;;;;9.33;5.43;;;;;;;9.77;100.00;96217.44;5084851;28;20086;-76
2021/09/18 01:04:40;;;;;;;10.40;5.33;;;;;;;9.68;100.00;96209.50;5074076;28;20039;-76
2021/09/18 01:07:06;;;;;;;7.40;4.87;;;;;;;9.66;100.00;96206.22;5076679;28;20158;-76
2021/09/18 01:09:32;;;;;;;8.00;5.30;;;;;;;9.66;100.00;96203.59;5090060;28;20089;-76
2021/09/18 01:11:59;;;;;;;6.73;5.00;;;;;;;9.74;100.00;96209.88;5077003;28;20028;-76
2021/09/18 01:14:25;;;;;;;9.27;5.80;;;;;;;9.64;100.00;96202.09;5083723;28;20692;-76
2021/09/18 01:16:51;;;;;;;9.43;5.80;;;;;;;9.55;100.00;96208.25;5069040;28;20119;-76
2021/09/18 01:19:17;;;;;;;9.50;5.77;;;;;;;9.50;100.00;96200.84;5080541;28;20127;-76
2021/09/18 01:21:50;;;;;;;7.33;4.93;;;;;;;9.49;100.00;96206.25;5074884;28;20114;-77
2021/09/18 01:24:17;;;;;;;8.57;5.68;;;;;;;9.52;100.00;96206.75;5072346;28;20082;-77
2021/09/18 01:26:43;;;;;;;9.23;5.93;;;;;;;9.57;100.00;96199.25;5078048;28;20415;-76
2021/09/18 01:29:09;;;;;;;8.93;4.87;;;;;;;9.64;100.00;96202.09;5068363;28;20081;-76
2021/09/18 01:31:43;;;;;;;8.73;5.00;;;;;;;9.61;100.00;96200.59;5084450;28;20113;-76
2021/09/18 01:34:09;;;;;;;12.30;5.93;;;;;;;9.57;100.00;96201.06;5081958;28;20444;-76
2021/09/18 01:36:35;;;;;;;11.63;5.73;;;;;;;9.54;100.00;96198.75;5077263;28;20089;-76
2021/09/18 01:39:03;;;;;;;10.27;5.30;;;;;;;9.59;100.00;96204.34;5083363;28;20170;-76
2021/09/18 01:41:31;;;;;;;9.40;6.03;;;;;;;9.51;100.00;96206.94;5076226;28;20020;-76
2021/09/18 01:43:59;;;;;;;8.43;5.20;;;;;;;9.43;100.00;96200.66;5067580;28;20040;-76
2021/09/18 01:46:25;;;;;;;8.33;5.93;;;;;;;9.45;100.00;96197.84;5088797;28;20092;-77
2021/09/18 01:48:52;;;;;;;9.90;5.93;;;;;;;9.42;100.00;96204.25;5080842;28;20032;-77
2021/09/18 01:51:18;;;;;;;10.00;5.70;;;;;;;9.40;100.00;96195.69;5081678;28;20031;-76
2021/09/18 01:53:44;;;;;;;10.23;6.10;;;;;;;9.43;100.00;96197.19;5076177;28;20389;-76
2021/09/18 01:56:10;;;;;;;9.93;5.80;;;;;;;9.37;100.00;96201.25;5083119;28;20459;-76
2021/09/18 01:58:36;;;;;;;10.93;6.77;;;;;;;9.33;100.00;96196.47;5076922;28;20119;-77
2021/09/18 02:01:03;;;;;;;8.80;6.20;;;;;;;9.30;100.00;96194.16;5070717;28;20047;-77
2021/09/18 02:03:33;;;;;;;9.53;5.43;;;;;;;9.31;100.00;96190.53;5083428;28;20040;-76
2021/09/18 02:05:58;;;;;;;10.07;6.07;;;;;;;9.25;100.00;96191.97;5077833;28;20043;-76
2021/09/18 02:08:25;;;;;;;11.60;6.37;;;;;;;9.18;100.00;96191.75;5080147;28;20024;-79
2021/09/18 02:10:52;;;;;;;10.20;5.90;;;;;;;9.15;100.00;96184.19;5070532;28;20050;-76
2021/09/18 02:13:19;;;;;;;9.50;5.53;;;;;;;9.13;100.00;96183.50;5075925;28;20025;-76
2021/09/18 02:15:45;;;;;;;9.17;5.27;;;;;;;9.10;100.00;96186.44;5080366;28;20024;-76
2021/09/18 02:18:11;;;;;;;8.47;5.50;;;;;;;9.09;100.00;96186.59;5062224;28;20495;-76
2021/09/18 02:20:38;;;;;;;8.87;5.77;;;;;;;9.04;100.00;96178.34;5070568;28;20455;-76
2021/09/18 02:23:05;;;;;;;8.30;5.53;;;;;;;9.10;100.00;96173.31;5078502;28;20071;-77
2021/09/18 02:25:31;;;;;;;10.07;5.50;;;;;;;9.13;100.00;96177.44;5086877;28;20044;-76
2021/09/18 02:27:57;;;;;;;9.20;5.57;;;;;;;9.03;100.00;96180.16;5086548;28;20121;-76
2021/09/18 02:30:28;;;;;;;12.20;5.97;;;;;;;9.06;100.00;96177.22;5089901;28;20024;-76
2021/09/18 02:32:55;;;;;;;10.37;5.60;;;;;;;9.04;100.00;96178.34;5070611;28;20032;-77
2021/09/18 02:35:23;;;;;;;10.83;5.97;;;;;;;8.97;100.00;96178.13;5069939;28;20110;-76
2021/09/18 02:37:52;;;;;;;9.20;5.53;;;;;;;8.94;100.00;96171.38;5078766;28;20056;-76
2021/09/18 02:40:19;;;;;;;11.67;6.33;;;;;;;8.95;100.00;96175.66;5087882;28;20084;-76
2021/09/18 02:42:49;;;;;;;11.27;6.27;;;;;;;9.04;100.00;96183.59;5081682;28;20020;-76
2021/09/18 02:45:15;;;;;;;8.77;6.20;;;;;;;9.09;100.00;96183.97;5080384;28;20074;-76
2021/09/18 02:47:41;;;;;;;9.43;6.13;;;;;;;9.02;100.00;96181.13;5078270;28;20129;-76
2021/09/18 02:50:09;;;;;;;10.50;6.17;;;;;;;9.06;100.00;96182.47;5085249;28;20449;-77
2021/09/18 02:52:35;;;;;;;9.97;6.27;;;;;;;9.01;100.00;96187.34;5062965;28;20128;-77
2021/09/18 02:55:00;;;;;;;9.60;5.90;;;;;;;9.05;100.00;96179.97;5061707;28;20023;-76
2021/09/18 02:57:26;;;;;;;8.37;6.07;;;;;;;8.97;100.00;96178.94;5058554;28;20047;-76
2021/09/18 02:59:52;;;;;;;9.63;6.70;;;;;;;9.01;100.00;96171.59;5082798;28;20044;-76
2021/09/18 03:02:18;;;;;;;10.77;7.00;;;;;;;8.97;100.00;96167.63;5081358;28;20093;-76
2021/09/18 03:04:43;;;;;;;11.57;6.30;;;;;;;9.03;100.00;96169.66;5070035;28;20025;-76
2021/09/18 03:07:09;;;;;;;10.70;6.27;;;;;;;9.06;100.00;96169.34;5083965;28;20062;-76
2021/09/18 03:09:35;;;;;;;10.37;6.90;;;;;;;9.10;100.00;96159.38;5072987;28;20112;-77
2021/09/18 03:12:01;;;;;;;8.93;5.93;;;;;;;9.08;100.00;96164.75;5079675;28;20063;-76
2021/09/18 03:14:26;;;;;;;8.67;6.07;;;;;;;9.04;100.00;96162.59;5068333;28;20063;-76
2021/09/18 03:16:52;;;;;;;10.90;6.53;;;;;;;8.96;100.00;96155.50;5076075;28;20036;-76
2021/09/18 03:19:18;;;;;;;9.37;6.20;;;;;;;9.00;100.00;96158.66;5077679;28;20073;-77
2021/09/18 03:21:44;;;;;;;9.97;5.63;;;;;;;8.93;100.00;96161.03;5084540;28;20536;-76
2021/09/18 03:24:10;;;;;;;8.37;6.53;;;;;;;8.90;100.00;96162.16;5074941;28;20016;-78
2021/09/18 03:26:36;;;;;;;10.50;6.00;;;;;;;8.74;100.00;96167.25;5056160;28;20488;-79
2021/09/18 03:29:03;;;;;;;12.53;6.77;;;;;;;8.73;100.00;96163.81;5079832;28;20460;-77
2021/09/18 03:31:29;;;;;;;8.90;6.50;;;;;;;8.64;100.00;96156.84;5082361;28;20032;-76
2021/09/18 03:33:55;;;;;;;12.53;7.13;;;;;;;8.57;100.00;96155.78;5073903;28;20008;-76
2021/09/18 03:36:21;;;;;;;10.10;6.77;;;;;;;8.61;100.00;96157.13;5075554;28;20104;-76
2021/09/18 03:38:46;;;;;;;9.23;6.73;;;;;;;8.68;100.00;96160.81;5077147;28;20027;-76
2021/09/18 03:41:12;;;;;;;9.87;5.90;;;;;;;8.67;100.00;96172.28;5084419;28;20107;-77
2021/09/18 03:43:38;;;;;;;11.37;6.23;;;;;;;8.62;100.00;96174.53;5076988;28;20044;-76
2021/09/18 03:46:03;;;;;;;10.77;5.93;;;;;;;8.60;100.00;96167.78;5078223;28;20036;-77
2021/09/18 03:48:29;;;;;;;8.53;6.30;;;;;;;8.64;100.00;96169.13;5080436;28;20070;-76
2021/09/18 03:50:55;;;;;;;11.17;6.67;;;;;;;8.65;100.00;96169.00;5061362;28;20033;-76
2021/09/18 03:53:21;;;;;;;9.73;6.70;;;;;;;8.72;100.00;96162.19;5081059;28;20039;-76
2021/09/18 03:55:46;;;;;;;9.30;6.27;;;;;;;8.78;100.00;96167.78;5074175;28;20040;-76
2021/09/18 03:58:12;;;;;;;10.60;6.77;;;;;;;8.74;100.00;96173.31;5079334;28;20039;-76
2021/09/18 04:00:37;;;;;;;10.37;6.57;;;;;;;8.71;100.00;96168.38;5075456;28;20036;-76
2021/09/18 04:03:03;;;;;;;10.57;6.87;;;;;;;8.69;100.00;96164.28;5074231;28;20409;-76
2021/09/18 04:05:30;;;;;;;11.73;6.10;;;;;;;8.63;100.00;96170.94;5082751;28;20054;-76
2021/09/18 04:07:56;;;;;;;9.10;6.50;;;;;;;8.60;100.00;96180.88;5084527;28;20404;-75
2021/09/18 04:10:21;;;;;;;9.93;6.30;;;;;;;8.68;100.00;96186.19;5068569;28;20037;-76
2021/09/18 04:12:47;;;;;;;9.70;6.27;;;;;;;8.57;100.00;96175.94;5082688;28;20496;-76
2021/09/18 04:15:13;;;;;;;10.13;7.10;;;;;;;8.44;100.00;96171.88;5082217;28;20032;-76
2021/09/18 04:17:38;;;;;;;14.13;9.27;;;;;;;8.31;100.00;96181.84;5074217;28;20043;-76
2021/09/18 04:20:06;;;;;;;11.13;7.40;;;;;;;8.33;100.00;96174.66;5071774;28;20036;-76
2021/09/18 04:22:31;;;;;;;10.20;6.90;;;;;;;8.40;100.00;96183.63;5072251;28;20032;-76
2021/09/18 04:24:57;;;;;;;9.53;6.93;;;;;;;8.39;100.00;96181.97;5066810;28;20036;-76
2021/09/18 04:27:23;;;;;;;11.63;8.60;;;;;;;8.32;100.00;96185.31;5073928;28;20040;-76
2021/09/18 04:29:49;;;;;;;12.00;8.30;;;;;;;8.29;100.00;96177.75;5076046;28;20996;-76
2021/09/18 04:32:14;;;;;;;12.37;8.13;;;;;;;8.34;100.00;96189.41;5077976;28;20081;-76
2021/09/18 04:34:40;;;;;;;10.60;7.60;;;;;;;8.40;100.00;96186.25;5073356;28;20028;-77
2021/09/18 04:37:06;;;;;;;10.47;7.37;;;;;;;8.36;100.00;96189.28;5081326;28;20513;-77
2021/09/18 04:39:31;;;;;;;11.37;8.00;;;;;;;8.25;100.00;96185.06;5079694;28;20039;-76
2021/09/18 04:41:57;;;;;;;13.50;9.13;;;;;;;8.22;100.00;96188.78;5072690;28;20050;-76
2021/09/18 04:44:23;;;;;;;13.60;8.67;;;;;;;8.24;100.00;96192.06;5084318;28;20028;-76
2021/09/18 04:46:49;;;;;;;13.40;8.27;;;;;;;8.20;100.00;96190.72;5067139;28;20043;-76
2021/09/18 04:49:14;;;;;;;14.57;8.70;;;;;;;8.14;100.00;96199.16;5067393;28;20135;-76
2021/09/18 04:51:40;;;;;;;12.93;8.37;;;;;;;8.10;100.00;96197.81;5081164;28;20094;-76
2021/09/18 04:54:06;;;;;;;12.77;8.20;;;;;;;8.09;100.00;96193.53;5078348;28;20032;-76
2021/09/18 04:56:31;;;;;;;12.13;7.80;;;;;;;8.08;100.00;96194.53;5073028;28;20089;-76
2021/09/18 04:58:57;;;;;;;10.47;7.50;;;;;;;8.13;100.00;96201.94;5085076;28;20089;-76
2021/09/18 05:01:23;;;;;;;17.00;12.20;;;;;;;8.19;100.00;96199.56;5080010;28;20024;-76
2021/09/18 05:03:49;;;;;;;12.03;8.23;;;;;;;8.12;100.00;96195.88;5078580;28;20036;-76
2021/09/18 05:06:14;;;;;;;13.03;8.37;;;;;;;8.10;100.00;96208.28;5078975;28;20051;-76
2021/09/18 05:08:40;;;;;;;12.20;9.00;;;;;;;8.13;100.00;96197.53;5072761;28;20110;-76
2021/09/18 05:11:06;;;;;;;11.87;8.97;;;;;;;8.15;100.00;96213.06;5082717;28;20032;-77
2021/09/18 05:13:31;;;;;;;12.47;8.40;;;;;;;8.17;100.00;96214.59;5079512;28;20435;-77
2021/09/18 05:15:57;;;;;;;14.80;9.83;;;;;;;8.20;100.00;96208.25;5086302;28;20020;-76
2021/09/18 05:18:23;;;;;;;17.30;10.30;;;;;;;8.31;100.00;96213.28;5061810;28;20640;-76
2021/09/18 05:20:49;;;;;;;15.87;9.63;;;;;;;8.40;100.00;96217.69;5085172;28;20033;-76
2021/09/18 05:23:14;;;;;;;13.80;10.00;;;;;;;8.60;100.00;96202.69;5079642;28;20569;-76
2021/09/18 05:25:40;;;;;;;14.23;8.97;;;;;;;8.77;100.00;96208.09;5075375;28;20024;-77
2021/09/18 05:28:06;;;;;;;11.93;9.07;;;;;;;9.01;100.00;96205.69;5087451;28;20100;-77
2021/09/18 05:30:31;;;;;;;10.60;7.93;;;;;;;9.22;100.00;96208.00;5078651;28;20035;-76
2021/09/18 05:32:57;;;;;;;12.40;8.50;;;;;;;9.54;100.00;96207.44;5085970;28;20588;-76
2021/09/18 05:35:23;;;;;;;11.60;7.60;;;;;;;9.75;100.00;96217.59;5073120;28;20032;-76
2021/09/18 05:37:49;;;;;;;10.63;7.87;;;;;;;9.84;100.00;96210.59;5085784;28;20055;-77
2021/09/18 05:40:14;;;;;;;11.20;8.00;;;;;;;10.19;100.00;96211.41;5080047;28;20025;-76
2021/09/18 05:42:41;;;;;;;9.70;7.10;;;;;;;10.67;100.00;96199.50;5079484;28;20040;-76
2021/09/18 05:45:08;;;;;;;12.27;7.53;;;;;;;10.46;100.00;96213.91;5079300;28;20040;-77
2021/09/18 05:47:34;;;;;;;10.43;7.23;;;;;;;10.62;100.00;96213.91;5078410;28;20035;-77
2021/09/18 05:50:00;;;;;;;13.23;7.17;;;;;;;10.76;100.00;96214.28;5071621;28;20127;-76
2021/09/18 05:52:25;;;;;;;10.97;7.20;;;;;;;11.06;100.00;96208.41;5088104;28;20123;-77
2021/09/18 05:54:52;;;;;;;8.20;5.97;;;;;;;11.33;98.00;96209.94;5089860;28;20020;-77
2021/09/18 05:57:18;;;;;;;9.30;6.40;;;;;;;11.15;98.33;96211.06;5087025;28;20058;-77
2021/09/18 05:59:43;;;;;;;9.87;7.10;;;;;;;11.39;97.73;96208.44;5058663;28;20470;-77
2021/09/18 06:02:09;;;;;;;9.87;6.30;;;;;;;11.25;98.80;96204.66;5086682;28;20110;-77
2021/09/18 06:04:35;;;;;;;9.70;6.30;;;;;;;11.81;96.72;96210.06;5071225;28;20025;-78
2021/09/18 06:07:01;;;;;;;10.10;5.97;;;;;;;12.33;93.83;96201.69;5081316;28;20031;-77
2021/09/18 06:09:27;;;;;;;8.63;5.67;;;;;;;12.39;92.63;96198.38;5082658;28;20402;-78
2021/09/18 06:11:52;;;;;;;8.20;5.63;;;;;;;12.56;90.19;96203.59;5082326;28;20401;-77
2021/09/18 06:14:18;;;;;;;7.80;5.53;;;;;;;13.02;88.72;96203.69;5081655;28;20024;-77
2021/09/18 06:16:44;;;;;;;8.10;5.50;;;;;;;13.28;88.88;96208.63;5079694;28;20098;-77
2021/09/18 06:19:11;;;;;;;9.13;5.60;;;;;;;13.71;85.18;96209.75;5058022;28;20521;-78
2021/09/18 06:21:38;;;;;;;10.17;5.03;;;;;;;13.84;81.56;96219.72;5070467;28;20078;-77
2021/09/18 06:24:10;;;;;;;8.20;4.80;;;;;;;14.27;81.72;96209.34;5089099;28;20442;-77
2021/09/18 06:26:36;;;;;;;8.47;5.37;;;;;;;13.83;83.51;96213.59;5060393;28;20028;-78
2021/09/18 06:29:02;;;;;;;7.30;4.80;;;;;;;13.87;82.12;96212.25;5075769;28;20029;-78
2021/09/18 06:31:28;;;;;;;10.53;4.97;;;;;;;14.34;80.66;96216.38;5083097;28;20114;-78
2021/09/18 06:33:54;;;;;;;7.63;5.07;;;;;;;13.80;83.83;96219.25;5081285;28;20091;-78
2021/09/18 06:36:19;;;;;;;10.23;5.63;;;;;;;14.40;81.94;96225.41;5082371;28;20127;-78
2021/09/18 06:38:45;;;;;;;9.47;6.10;;;;;;;14.95;80.33;96216.13;5073495;28;20035;-78
2021/09/18 06:41:11;;;;;;;9.00;6.17;;;;;;;15.43;77.07;96216.44;5066325;28;20098;-78
2021/09/18 06:43:36;;;;;;;9.67;5.13;;;;;;;15.37;75.72;96219.81;5083505;28;20032;-78
2021/09/18 06:46:02;;;;;;;9.77;5.47;;;;;;;15.35;76.22;96213.06;5086945;28;20039;-78
2021/09/18 06:48:28;;;;;;;8.43;5.75;;;;;;;15.93;76.75;96211.97;5077494;28;20104;-77
2021/09/18 06:50:53;;;;;;;8.30;5.22;;;;;;;16.41;73.82;96209.41;5074251;28;20039;-77
2021/09/18 06:53:19;;;;;;;12.10;5.93;;;;;;;16.23;75.34;96211.75;5077388;28;20028;-77
2021/09/18 06:55:45;;;;;;;8.70;5.40;;;;;;;16.59;73.23;96203.56;5081686;28;20103;-77
2021/09/18 06:58:10;;;;;;;8.82;5.97;;;;;;;16.70;73.22;96210.97;5082862;28;20016;-77
2021/09/18 07:00:36;;;;;;;11.02;6.90;;;;;;;17.43;70.67;96202.41;5087160;28;20139;-77
2021/09/18 07:03:02;;;;;;;7.35;5.68;;;;;;;17.68;69.39;96200.78;5056181;28;20041;-78
2021/09/18 07:05:28;;;;;;;12.57;7.90;;;;;;;17.65;68.81;96214.50;5078144;28;20071;-77
2021/09/18 07:07:53;;;;;;;9.13;6.40;;;;;;;17.97;68.96;96220.03;5085663;28;20028;-77
2021/09/18 07:10:19;;;;;;;9.88;6.63;;;;;;;17.74;69.17;96211.63;5079388;28;20038;-77
2021/09/18 07:12:45;;;;;;;8.85;6.32;;;;;;;18.21;67.95;96215.09;5082493;28;20024;-78
2021/09/18 07:15:11;;;;;;;8.05;5.95;;;;;;;18.87;66.24;96212.25;5083301;28;20020;-77
2021/09/18 07:17:37;;;;;;;12.07;6.60;;;;;;;19.07;66.16;96199.66;5070923;28;20028;-78
2021/09/18 07:20:04;;;;;;;12.48;7.53;;;;;;;17.63;71.82;96203.22;5080333;28;20036;-78
2021/09/18 07:22:29;;;;;;;8.32;5.18;;;;;;;18.04;72.63;96204.91;5080339;28;20169;-78
2021/09/18 07:24:55;;;;;;;7.00;4.20;;;;;;;18.69;67.35;96210.25;5090135;28;20067;-77
2021/09/18 07:27:21;;;;;;;7.57;4.55;;;;;;;19.15;64.08;96205.75;5086765;28;20036;-77
2021/09/18 07:29:50;;;;;;;7.85;3.92;;;;;;;19.23;62.87;96211.69;5067924;28;20029;-77
2021/09/18 07:32:17;;;;;;;8.50;5.00;;;;;;;19.79;63.49;96202.09;5076307;28;20485;-78
2021/09/18 07:34:43;;;;;;;5.32;3.35;;;;;;;20.11;62.22;96204.69;5075027;28;20103;-77
2021/09/18 07:37:09;;;;;;;6.25;3.60;;;;;;;20.66;59.94;96210.94;5084868;28;20455;-77
2021/09/18 07:39:34;;;;;;;7.32;3.90;;;;;;;20.89;59.00;96207.56;5080168;28;20081;-77
2021/09/18 07:42:00;;;;;;;6.65;4.40;;;;;;;20.61;59.31;96204.59;5074434;28;20028;-77
2021/09/18 07:44:26;;;;;;;6.93;4.15;;;;;;;20.63;58.99;96207.88;5073786;28;20468;-78
2021/09/18 07:46:51;;;;;;;7.40;5.07;;;;;;;20.32;60.05;96220.31;5075478;28;20024;-77
2021/09/18 07:49:17;;;;;;;10.65;6.57;;;;;;;20.76;58.61;96213.09;5056042;28;20032;-77
2021/09/18 07:51:46;;;;;;;12.73;6.47;;;;;;;20.72;58.62;96219.88;5071668;28;20078;-78
2021/09/18 07:54:12;;;;;;;9.55;4.80;;;;;;;20.73;58.64;96212.72;5069604;28;20028;-78
2021/09/18 07:56:38;;;;;;;7.50;5.13;;;;;;;20.95;58.29;96214.66;5073415;28;20055;-78
2021/09/18 07:59:04;;;;;;;6.45;4.47;;;;;;;21.56;57.69;96220.06;5074951;28;20082;-78
2021/09/18 08:01:30;;;;;;;7.40;5.28;;;;;;;22.32;55.10;96221.13;5078081;28;20016;-77
2021/09/18 08:04:03;;;;;;;10.52;7.10;;;;;;;21.51;58.11;96215.41;5067433;28;20685;-78
2021/09/18 08:06:30;;;;;;;8.60;5.35;;;;;;;21.58;57.07;96217.97;5073721;28;20024;-78
2021/09/18 08:08:56;;;;;;;8.73;5.90;;;;;;;22.36;55.54;96217.72;5077953;28;20024;-78
2021/09/18 08:11:22;;;;;;;7.80;5.63;;;;;;;22.87;54.22;96218.03;5081082;28;20112;-79
2021/09/18 08:13:49;;;;;;;7.53;5.70;;;;;;;22.71;54.03;96224.91;5076099;28;20024;-78
2021/09/18 08:16:15;;;;;;;8.10;4.85;;;;;;;22.91;53.44;96223.72;5074686;28;20038;-78
2021/09/18 08:18:42;;;;;;;8.45;5.53;;;;;;;22.91;54.28;96229.09;5072091;28;20029;-79
2021/09/18 08:21:08;;;;;;;8.38;6.22;;;;;;;21.99;54.26;96227.81;5088608;28;20024;-79
2021/09/18 08:23:34;;;;;;;8.30;5.68;;;;;;;23.51;52.44;96228.66;5080330;28;20064;-78
2021/09/18 08:25:59;;;;;;;10.70;5.68;;;;;;;23.40;52.35;96230.31;5080508;28;20115;-78
2021/09/18 08:28:25;;;;;;;7.45;5.75;;;;;;;23.25;51.63;96222.00;5077489;28;20539;-78
2021/09/18 08:30:51;;;;;;;7.75;6.00;;;;;;;22.82;51.84;96229.44;5083859;28;20111;-78
2021/09/18 08:33:16;;;;;;;9.95;7.28;;;;;;;22.88;48.38;96229.56;5077394;28;20024;-78
2021/09/18 08:35:42;;;;;;;7.07;6.13;;;;;;;23.23;47.11;96224.91;5080657;28;20072;-79
2021/09/18 08:38:08;;;;;;;8.65;6.70;;;;;;;23.89;47.28;96217.25;5085371;28;20606;-79
2021/09/18 08:40:37;;;;;;;6.95;5.07;;;;;;;22.16;48.10;96227.16;5084307;28;20036;-79
2021/09/18 08:43:04;;;;;;;8.23;5.97;;;;;;;23.49;46.75;96222.69;5085286;28;20055;-78
2021/09/18 08:45:30;;;;;;;6.05;4.22;;;;;;;23.16;45.08;96229.59;5076699;28;20032;-78
2021/09/18 08:47:57;;;;;;;7.07;5.25;;;;;;;23.47;45.71;96227.47;5077643;28;20031;-78
2021/09/18 08:50:23;;;;;;;8.82;5.80;;;;;;;23.20;47.97;96241.47;5081894;28;20042;-79
2021/09/18 08:52:52;;;;;;;7.43;4.38;;;;;;;22.56;47.45;96232.63;5097206;28;20051;-79
2021/09/18 08:55:17;;;;;;;7.07;4.68;;;;;;;23.75;44.42;96224.81;5084643;28;20036;-78
2021/09/18 08:57:43;;;;;;;6.80;4.40;;;;;;;24.54;42.91;96221.19;5064019;28;20085;-78
2021/09/18 09:00:29;;;;;;;5.43;3.80;;;;;;;24.73;42.79;96227.09;5084000;28;20032;-79
2021/09/18 09:02:55;;;;;;;7.28;4.43;;;;;;;24.31;43.34;96224.06;5083628;28;20169;-78
2021/09/18 09:05:27;;;;;;;6.50;3.95;;;;;;;24.21;41.98;96217.50;5079872;28;20452;-78
2021/09/18 09:08:15;;;;;;;6.53;2.90;;;;;;;22.60;43.69;96233.78;5067832;28;20032;-79
2021/09/18 09:10:43;;;;;;;2.15;1.55;;;;;;;22.52;40.49;96226.09;5076170;28;20173;-79
2021/09/18 09:13:14;;;;;;;5.60;3.40;;;;;;;24.17;43.30;96219.03;5069833;28;20058;-79
2021/09/18 09:15:43;;;;;;;7.57;2.80;;;;;;;24.56;40.37;96216.41;5080049;28;20039;-78
2021/09/18 09:18:21;;;;;;;6.68;3.70;;;;;;;22.99;45.90;96226.03;5076204;28;20573;-78
2021/09/18 09:20:50;;;;;;;6.20;3.65;;;;;;;23.76;42.71;96212.19;5082456;28;20044;-79
2021/09/18 09:23:20;;;;;;;6.20;3.70;;;;;;;24.16;42.63;96212.03;5084785;28;20020;-78
2021/09/18 09:25:53;;;;;;;6.25;3.30;;;;;;;25.43;42.16;96204.00;5084387;28;20036;-78
2021/09/18 09:28:32;;;;;;;5.82;3.50;;;;;;;25.65;43.07;96201.22;5078004;28;20035;-79
2021/09/18 09:31:27;;;;;;;4.78;3.40;;;;;;;26.20;40.80;96196.59;5078195;28;20095;-78
2021/09/18 09:34:01;;;;;;;5.13;3.05;;;;;;;26.35;39.36;96199.38;5084112;28;20058;-78
2021/09/18 09:36:28;;;;;;;4.85;3.30;;;;;;;26.21;39.37;96200.91;5085572;28;20396;-78
2021/09/18 09:39:03;;;;;;;6.43;4.38;;;;;;;27.02;37.93;96203.25;5087894;28;20027;-78
2021/09/18 09:41:38;;;;;;;4.45;2.85;;;;;;;26.76;40.36;96197.75;5089099;28;20078;-78
2021/09/18 09:44:13;;;;;;;5.32;3.25;;;;;;;27.20;37.46;96194.72;5082628;28;20067;-77
2021/09/18 09:46:39;;;;;;;5.22;3.47;;;;;;;27.06;37.16;96200.81;5077107;28;20040;-78
2021/09/18 09:49:15;;;;;;;6.22;4.60;;;;;;;25.31;40.15;96198.75;5084208;28;20031;-78
2021/09/18 09:51:42;;;;;;;7.25;5.05;;;;;;;26.61;38.11;96199.56;5076676;28;20028;-78
2021/09/18 09:54:17;;;;;;;5.68;3.28;;;;;;;26.49;38.55;96205.16;5078858;28;20054;-78
2021/09/18 09:56:42;;;;;;;5.90;3.40;;;;;;;26.97;38.26;96203.25;5054253;28;20070;-78
2021/09/18 09:59:08;;;;;;;5.68;3.83;;;;;;;26.44;37.66;96200.53;5070654;28;20028;-78
2021/09/18 10:01:34;;;;;;;5.05;3.33;;;;;;;26.70;38.21;96196.13;5083619;28;20036;-78
2021/09/18 10:04:01;;;;;;;5.43;3.35;;;;;;;27.53;35.44;96194.50;5076356;28;20031;-77
2021/09/18 10:06:27;;;;;;;6.80;5.00;;;;;;;26.37;36.45;96196.44;5073775;28;20075;-78
2021/09/18 10:08:56;;;;;;;8.15;4.53;;;;;;;26.90;36.87;96197.28;5079195;28;20470;-78
2021/09/18 10:11:24;;;;;;;5.78;3.35;;;;;;;26.93;37.33;96202.97;5082491;28;20628;-78
2021/09/18 10:13:52;;;;;;;6.07;4.40;;;;;;;24.61;42.31;96203.00;5086051;28;20020;-78
2021/09/18 10:16:18;;;;;;;5.38;4.05;;;;;;;25.54;39.95;96194.94;5081749;28;20144;-78
2021/09/18 10:18:45;;;;;;;5.45;3.65;;;;;;;26.99;37.04;96195.69;5084389;28;20032;-78
2021/09/18 10:23:56;;;;;;;4.50;3.33;;;;;;;26.69;36.66;96196.34;5077954;28;20111;-79
2021/09/18 10:26:22;;;;;;;4.30;2.92;;;;;;;26.38;36.53;96193.47;5066363;28;20028;-78
2021/09/18 10:28:48;;;;;;;5.47;3.28;;;;;;;26.66;35.62;96195.03;5087574;28;20051;-79
2021/09/18 10:31:21;;;;;;;6.00;4.15;;;;;;;27.41;34.40;96187.47;5062427;28;20106;-79
2021/09/18 10:33:52;;;;;;;5.20;3.53;;;;;;;26.32;35.92;96186.41;5084466;28;20036;-79
2021/09/18 10:36:40;;;;;;;5.47;3.53;;;;;;;26.92;36.51;96190.53;5081739;28;20036;-78
2021/09/18 10:39:10;;;;;;;5.47;3.60;;;;;;;26.51;38.55;96190.34;5088418;28;20039;-79
2021/09/18 10:41:49;;;;;;;7.20;3.95;;;;;;;26.16;37.39;96187.41;5065408;28;20028;-78
2021/09/18 10:44:18;;;;;;;5.10;3.65;;;;;;;26.13;37.44;96183.34;5080108;28;20086;-78
2021/09/18 10:46:46;;;;;;;6.07;3.60;;;;;;;27.08;37.50;96182.50;5088995;28;20087;-79
2021/09/18 10:49:37;;;;;;;7.45;4.72;;;;;;;25.51;37.41;96187.38;5076724;28;20549;-78
2021/09/18 10:52:22;;;;;;;7.80;5.18;;;;;;;24.13;40.83;96191.03;5082956;28;20040;-78
2021/09/18 10:55:07;;;;;;;8.95;6.05;;;;;;;24.30;41.43;96190.19;5082373;28;20091;-78
2021/09/18 10:57:45;;;;;;;7.22;5.65;;;;;;;25.47;39.07;96180.88;5075931;28;20028;-78
2021/09/18 11:00:18;;;;;;;6.63;4.88;;;;;;;25.56;39.24;96184.75;5084542;28;20027;-78
2021/09/18 11:02:47;;;;;;;6.63;4.32;;;;;;;26.30;37.42;96184.00;5074001;28;20086;-78
2021/09/18 11:05:22;;;;;;;6.80;4.90;;;;;;;26.44;38.57;96178.94;5070060;28;20678;-78
2021/09/18 11:07:51;;;;;;;7.65;6.07;;;;;;;26.16;37.69;96176.63;5088336;28;20036;-78
2021/09/18 11:10:19;;;;;;;8.15;6.47;;;;;;;25.28;40.21;96182.31;5070739;28;20063;-78
2021/09/18 11:13:07;;;;;;;11.00;8.00;;;;;;;24.32;40.79;96182.72;5085466;28;20484;-77
2021/09/18 11:15:58;;;;;;;7.45;5.50;;;;;;;25.10;41.76;96176.16;5073373;28;20020;-78
2021/09/18 11:18:36;;;;;;;8.38;5.75;;;;;;;23.17;44.48;96191.00;5044624;28;20044;-78
2021/09/18 11:21:16;;;;;;;7.22;5.93;;;;;;;23.04;44.42;96180.56;5075176;28;20043;-78
2021/09/18 11:24:04;;;;;;;90.93;73.10;;;;;;;23.94;42.14;96176.22;5063881;28;20035;-79
2021/09/18 11:26:39;;;;;;;16.60;12.85;;;;;;;23.52;44.16;96173.91;5062246;28;20477;-78
2021/09/18 11:29:22;;;;;;;7.05;5.40;;;;;;;23.17;47.07;96185.66;5089348;28;20043;-79
2021/09/18 11:32:05;;;;;;;7.13;5.35;;;;;;;23.45;45.65;96175.94;5083375;28;20040;-77
2021/09/18 11:34:51;;;;;;;6.72;4.85;;;;;;;24.63;43.18;96165.13;5079962;28;20036;-78